createdAt,value
2023-03-26T00:00:27.382Z,7.16
2023-03-26T00:06:16.238Z,7.17
2023-03-26T00:11:40.093Z,7.20
2023-03-26T00:17:04.630Z,7.17
2023-03-26T00:22:29.868Z,7.12
2023-03-26T00:27:55.040Z,7.10
2023-03-26T00:33:19.882Z,7.08
2023-03-26T00:38:45.188Z,7.12
2023-03-26T00:44:10.269Z,7.16
2023-03-26T00:49:34.969Z,7.25
2023-03-26T00:55:00.495Z,7.33
2023-03-26T01:00:35.183Z,7.37
2023-03-26T01:06:14.327Z,7.37
2023-03-26T01:11:38.444Z,7.37
2023-03-26T01:17:04.844Z,7.39
2023-03-26T01:22:29.176Z,7.38
2023-03-26T01:27:57.213Z,7.38
2023-03-26T01:33:47.249Z,7.34
2023-03-26T01:39:20.640Z,7.26
2023-03-26T01:45:09.473Z,7.18
2023-03-26T01:50:33.614Z,7.05
2023-03-26T01:56:12.996Z,6.90
2023-03-26T02:01:45.379Z,6.78
2023-03-26T02:07:21.181Z,6.68
2023-03-26T02:12:45.594Z,6.65
2023-03-26T02:18:13.674Z,6.63
2023-03-26T02:23:38.788Z,6.62
2023-03-26T02:29:03.184Z,6.60
2023-03-26T02:34:28.618Z,6.60
2023-03-26T02:39:53.492Z,6.62
2023-03-26T02:45:23.874Z,6.64
2023-03-26T02:51:10.825Z,6.68
2023-03-26T02:56:40.688Z,6.72
2023-03-26T03:02:24.811Z,6.74
2023-03-26T03:07:50.384Z,6.76
2023-03-26T03:13:15.676Z,6.78
2023-03-26T03:18:40.478Z,6.81
2023-03-26T03:24:05.620Z,6.80
2023-03-26T03:29:36.562Z,6.78
2023-03-26T03:35:20.886Z,6.75
2023-03-26T03:40:48.604Z,6.73
2023-03-26T03:46:14.172Z,6.73
2023-03-26T03:51:44.229Z,6.71
2023-03-26T03:57:19.178Z,6.71
2023-03-26T04:02:59.104Z,6.69
2023-03-26T04:08:24.995Z,6.68
2023-03-26T04:13:52.759Z,6.65
2023-03-26T04:19:33.139Z,6.64
2023-03-26T04:24:57.684Z,6.64
2023-03-26T04:30:28.369Z,6.64
2023-03-26T04:36:03.372Z,6.66
2023-03-26T04:41:30.594Z,6.66
2023-03-26T04:47:01.384Z,6.67
2023-03-26T04:52:39.744Z,6.68
2023-03-26T05:03:23.588Z,6.75
2023-03-26T05:08:47.608Z,6.69
2023-03-26T05:14:25.081Z,6.70
2023-03-26T05:19:52.626Z,6.74
2023-03-26T05:25:17.957Z,6.79
2023-03-26T05:30:43.926Z,6.84
2023-03-26T05:36:13.541Z,6.89
2023-03-26T05:41:39.704Z,6.94
2023-03-26T05:47:04.181Z,6.86
2023-03-26T05:52:29.929Z,6.84
2023-03-26T05:58:15.825Z,6.89
2023-03-26T06:03:49.180Z,7.00
2023-03-26T06:09:17.313Z,7.09
2023-03-26T06:14:46.130Z,7.16
2023-03-26T06:20:16.157Z,7.21
2023-03-26T06:25:46.157Z,7.33
2023-03-26T06:31:22.447Z,7.48
2023-03-26T06:37:09.443Z,7.65
2023-03-26T06:43:07.500Z,7.81
2023-03-26T06:54:25.584Z,7.84
2023-03-26T06:59:53.375Z,7.91
2023-03-26T07:05:36.305Z,8.08
2023-03-26T07:11:21.075Z,8.18
2023-03-26T07:17:03.708Z,8.24
2023-03-26T07:22:52.349Z,8.59
2023-03-26T07:28:42.442Z,8.79
2023-03-26T07:35:08.831Z,8.77
2023-03-26T07:41:23.809Z,8.74
2023-03-26T07:47:27.196Z,8.83
2023-03-26T07:53:11.001Z,8.88
2023-03-26T07:59:10.960Z,8.99
2023-03-26T08:05:00.733Z,9.05
2023-03-26T08:11:08.414Z,9.20
2023-03-26T08:16:51.695Z,9.42
2023-03-26T08:22:26.557Z,9.59
2023-03-26T08:28:35.382Z,9.48
2023-03-26T08:34:00.834Z,9.18
2023-03-26T08:39:25.786Z,9.10
2023-03-26T08:45:03.122Z,9.26
2023-03-26T08:50:39.423Z,9.35
2023-03-26T08:56:37.721Z,9.44
2023-03-26T09:02:21.837Z,9.75
2023-03-26T09:07:51.895Z,9.74
2023-03-26T09:13:57.532Z,9.59
2023-03-26T09:19:34.393Z,9.48
2023-03-26T09:25:09.165Z,9.56
2023-03-26T09:31:02.548Z,10.03
2023-03-26T09:36:34.295Z,10.32
2023-03-26T09:42:18.349Z,10.24
2023-03-26T09:47:54.768Z,10.05
2023-03-26T09:53:25.224Z,9.62
2023-03-26T09:59:33.675Z,9.00
2023-03-26T10:05:05.371Z,9.07
2023-03-26T10:10:38.258Z,9.49
2023-03-26T10:16:44.970Z,9.76
2023-03-26T10:22:16.638Z,10.11
2023-03-26T10:28:11.272Z,10.35
2023-03-26T10:33:52.769Z,10.73
2023-03-26T10:39:37.580Z,11.24
2023-03-26T10:45:25.383Z,11.51
2023-03-26T10:51:17.198Z,11.67
2023-03-26T10:56:51.058Z,11.30
2023-03-26T11:02:30.804Z,11.29
2023-03-26T11:08:15.721Z,11.41
2023-03-26T11:13:53.967Z,11.89
2023-03-26T11:19:42.813Z,12.25
2023-03-26T11:25:28.142Z,12.14
2023-03-26T11:31:02.496Z,12.07
2023-03-26T11:36:38.330Z,12.35
2023-03-26T11:42:14.711Z,12.51
2023-03-26T11:47:55.680Z,12.94
2023-03-26T11:53:22.746Z,13.36
2023-03-26T11:59:02.963Z,13.68
2023-03-26T12:04:40.859Z,13.75
2023-03-26T12:10:20.942Z,13.78
2023-03-26T12:15:45.215Z,13.77
2023-03-26T12:21:20.031Z,13.59
2023-03-26T12:26:49.325Z,13.76
2023-03-26T12:32:15.326Z,14.00
2023-03-26T12:37:43.728Z,14.19
2023-03-26T12:44:46.872Z,14.23
2023-03-26T12:49:24.039Z,13.80
2023-03-26T12:55:16.247Z,13.47
2023-03-26T13:00:57.888Z,13.30
2023-03-26T13:07:00.419Z,13.11
2023-03-26T13:12:53.655Z,12.67
2023-03-26T13:18:30.216Z,12.41
2023-03-26T13:24:18.833Z,12.33
2023-03-26T13:30:02.226Z,12.67
2023-03-26T13:35:37.022Z,13.16
2023-03-26T13:41:06.958Z,12.98
2023-03-26T13:46:43.695Z,12.75
2023-03-26T13:52:15.916Z,12.66
2023-03-26T13:57:46.316Z,12.58
2023-03-26T14:03:21.092Z,12.54
2023-03-26T14:08:55.185Z,12.42
2023-03-26T14:14:44.565Z,12.29
2023-03-26T14:20:32.918Z,12.33
2023-03-26T14:26:27.163Z,12.41
2023-03-26T14:32:04.732Z,12.45
2023-03-26T14:37:29.050Z,12.47
2023-03-26T14:43:38.812Z,12.40
2023-03-26T14:49:24.360Z,12.27
2023-03-26T14:54:52.341Z,12.26
2023-03-26T15:00:45.289Z,12.13
2023-03-26T15:06:47.469Z,11.99
2023-03-26T15:12:24.919Z,11.96
2023-03-26T15:17:57.592Z,11.87
2023-03-26T15:23:30.997Z,11.80
2023-03-26T15:28:59.537Z,11.83
2023-03-26T15:35:03.047Z,11.78
2023-03-26T15:40:43.485Z,11.75
2023-03-26T15:46:10.602Z,11.71
2023-03-26T15:51:59.123Z,11.66
2023-03-26T15:57:41.268Z,11.60
2023-03-26T16:03:11.265Z,11.53
2023-03-26T16:09:08.471Z,11.42
2023-03-26T16:14:35.824Z,11.35
2023-03-26T16:20:21.092Z,11.31
2023-03-26T16:26:19.974Z,11.24
2023-03-26T16:32:06.057Z,11.18
2023-03-26T16:37:36.700Z,11.12
2023-03-26T16:43:24.848Z,11.03
2023-03-26T16:48:58.335Z,10.95
2023-03-26T16:54:36.748Z,10.87
2023-03-26T17:00:29.527Z,10.77
2023-03-26T17:06:02.518Z,10.67
2023-03-26T17:11:47.694Z,10.24
2023-03-26T17:17:41.290Z,9.63
2023-03-26T17:23:09.781Z,9.21
2023-03-26T17:29:08.315Z,8.94
2023-03-26T17:34:38.820Z,8.77
2023-03-26T17:40:06.662Z,8.62
2023-03-26T17:45:35.589Z,8.49
2023-03-26T17:51:34.493Z,8.38
2023-03-26T17:57:05.556Z,8.36
2023-03-26T18:02:39.706Z,8.37
2023-03-26T18:08:25.261Z,8.28
2023-03-26T18:14:24.602Z,8.16
2023-03-26T18:20:02.860Z,8.05
2023-03-26T18:25:32.704Z,8.00
2023-03-26T18:31:09.142Z,7.97
2023-03-26T18:36:33.526Z,7.91
2023-03-26T18:41:58.798Z,7.89
2023-03-26T18:47:23.366Z,7.89
2023-03-26T18:52:52.874Z,7.90
2023-03-26T18:58:28.293Z,7.92
2023-03-26T19:03:54.656Z,7.89
2023-03-26T19:09:31.135Z,7.85
2023-03-26T19:15:13.804Z,7.79
2023-03-26T19:20:45.711Z,7.74
2023-03-26T19:26:11.865Z,7.73
2023-03-26T19:31:40.636Z,7.66
2023-03-26T19:37:30.126Z,7.61
2023-03-26T19:42:54.556Z,7.55
2023-03-26T19:48:45.929Z,7.53
2023-03-26T19:54:16.817Z,7.48
2023-03-26T19:59:41.352Z,7.47
2023-03-26T20:05:10.659Z,7.43
2023-03-26T20:10:35.360Z,7.41
2023-03-26T20:16:13.566Z,7.39
2023-03-26T20:21:38.527Z,7.36
2023-03-26T20:27:02.717Z,7.30
2023-03-26T20:32:27.625Z,7.29
2023-03-26T20:37:53.649Z,7.29
2023-03-26T20:43:18.832Z,7.29
2023-03-26T20:48:43.359Z,7.25
2023-03-26T20:54:08.380Z,7.17
2023-03-26T20:59:32.798Z,7.14
2023-03-26T21:04:57.639Z,7.11
2023-03-26T21:10:23.200Z,7.08
2023-03-26T21:15:47.877Z,7.05
2023-03-26T21:21:56.477Z,7.00
2023-03-26T21:27:20.370Z,6.93
2023-03-26T21:32:45.733Z,6.87
2023-03-26T21:38:10.301Z,6.85
2023-03-26T21:43:34.854Z,6.83
2023-03-26T21:48:59.780Z,6.81
2023-03-26T21:54:29.087Z,6.82
2023-03-26T22:00:07.825Z,6.82
2023-03-26T22:05:38.576Z,6.83
2023-03-26T22:11:02.554Z,6.84
2023-03-26T22:16:26.997Z,6.85
2023-03-26T22:21:56.358Z,6.84
2023-03-26T22:27:24.932Z,6.81
2023-03-26T22:32:53.787Z,6.83
2023-03-26T22:38:18.272Z,6.80
2023-03-26T22:43:42.873Z,6.77
2023-03-26T22:49:08.128Z,6.73
2023-03-26T22:54:33.591Z,6.74
2023-03-26T23:00:12.913Z,6.76
2023-03-26T23:05:36.938Z,6.82
2023-03-26T23:11:02.293Z,6.83
2023-03-26T23:16:26.882Z,6.81
2023-03-26T23:21:51.295Z,6.79
2023-03-26T23:27:15.744Z,6.80
2023-03-26T23:32:47.494Z,6.85
2023-03-26T23:38:13.425Z,6.91
2023-03-26T23:43:39.950Z,6.99
2023-03-26T23:49:18.402Z,7.03
2023-03-26T23:54:43.464Z,7.03
